Casino Beach, Iowa
Current Conditions -  °F | °C
As of 7:35 PM on Friday 21 Nov 2014 (Local Time) from KSLB Reporting Station
Clear Clear  
Wind Chill: 21°   Ceiling: Unl
Heat Index: 32°   Visibility: 9mi
Dew Point: 28°   Wind: 17mph
Humidity: 87%   Direction: 180°S
Pressure: 29.97"   Gusts: NA
Location:  42.674°N, 95.1635°W
Report Text: KSLB 220135Z AUTO 18015KT 9SM CLR M00/M02 A2997 RMK AO2
Loading
Personal Weather Stations






























Interactive Weather Map New forecast layout! Learn more

10-Day Weather Forecast

Advertisements
Track Severe Weather on mobile